sensor_id;sensor_type;location;lat;lon;timestamp;temperature;humidity
4548;DHT22;2286;51.570;7.090;2023-08-12T00:00:11;20.70;99.90
4548;DHT22;2286;51.570;7.090;2023-08-12T00:02:38;20.60;99.90
4548;DHT22;2286;51.570;7.090;2023-08-12T00:05:06;20.60;99.90
4548;DHT22;2286;51.570;7.090;2023-08-12T00:07:33;20.60;99.90
4548;DHT22;2286;51.570;7.090;2023-08-12T00:10:00;20.60;99.90
4548;DHT22;2286;51.570;7.090;2023-08-12T00:12:29;20.50;99.90
4548;DHT22;2286;51.570;7.090;2023-08-12T00:14:56;20.50;99.90
4548;DHT22;2286;51.570;7.090;2023-08-12T00:17:24;20.60;99.90
4548;DHT22;2286;51.570;7.090;2023-08-12T00:19:51;20.50;99.90
4548;DHT22;2286;51.570;7.090;2023-08-12T00:22:18;20.50;99.90
4548;DHT22;2286;51.570;7.090;2023-08-12T00:24:44;20.50;99.90
4548;DHT22;2286;51.570;7.090;2023-08-12T00:27:11;20.50;99.90
4548;DHT22;2286;51.570;7.090;2023-08-12T00:29:38;20.50;99.90
4548;DHT22;2286;51.570;7.090;2023-08-12T00:32:05;20.60;99.90
4548;DHT22;2286;51.570;7.090;2023-08-12T00:34:33;20.60;99.90
4548;DHT22;2286;51.570;7.090;2023-08-12T00:37:00;20.60;99.90
4548;DHT22;2286;51.570;7.090;2023-08-12T00:39:27;20.70;99.90
4548;DHT22;2286;51.570;7.090;2023-08-12T00:41:54;20.70;99.90
4548;DHT22;2286;51.570;7.090;2023-08-12T00:44:21;20.70;99.90
4548;DHT22;2286;51.570;7.090;2023-08-12T00:46:48;20.70;99.90
4548;DHT22;2286;51.570;7.090;2023-08-12T00:49:15;20.60;99.90
4548;DHT22;2286;51.570;7.090;2023-08-12T00:51:44;20.60;99.90
4548;DHT22;2286;51.570;7.090;2023-08-12T00:54:13;20.50;99.90
4548;DHT22;2286;51.570;7.090;2023-08-12T00:56:41;20.50;99.90
4548;DHT22;2286;51.570;7.090;2023-08-12T00:59:08;20.50;99.90
4548;DHT22;2286;51.570;7.090;2023-08-12T01:01:38;20.40;99.90
4548;DHT22;2286;51.570;7.090;2023-08-12T01:04:06;20.40;99.90
4548;DHT22;2286;51.570;7.090;2023-08-12T01:06:33;20.30;99.90
4548;DHT22;2286;51.570;7.090;2023-08-12T01:09:02;20.40;99.90
4548;DHT22;2286;51.570;7.090;2023-08-12T01:11:35;20.40;99.90
4548;DHT22;2286;51.570;7.090;2023-08-12T01:14:08;20.40;99.90
4548;DHT22;2286;51.570;7.090;2023-08-12T01:16:43;20.40;99.90
4548;DHT22;2286;51.570;7.090;2023-08-12T01:19:21;20.40;99.90
4548;DHT22;2286;51.570;7.090;2023-08-12T01:21:52;20.40;99.90
4548;DHT22;2286;51.570;7.090;2023-08-12T01:24:21;20.40;99.90
4548;DHT22;2286;51.570;7.090;2023-08-12T01:26:48;20.40;99.90
4548;DHT22;2286;51.570;7.090;2023-08-12T01:29:15;20.40;99.90
4548;DHT22;2286;51.570;7.090;2023-08-12T01:31:47;20.50;99.90
4548;DHT22;2286;51.570;7.090;2023-08-12T01:34:19;20.40;99.90
4548;DHT22;2286;51.570;7.090;2023-08-12T01:36:53;20.50;99.90
4548;DHT22;2286;51.570;7.090;2023-08-12T01:39:23;20.40;99.90
4548;DHT22;2286;51.570;7.090;2023-08-12T01:41:53;20.50;99.90
4548;DHT22;2286;51.570;7.090;2023-08-12T01:44:20;20.40;99.90
4548;DHT22;2286;51.570;7.090;2023-08-12T01:46:49;20.40;99.90
4548;DHT22;2286;51.570;7.090;2023-08-12T01:49:16;20.40;99.90
4548;DHT22;2286;51.570;7.090;2023-08-12T01:51:43;20.40;99.90
4548;DHT22;2286;51.570;7.090;2023-08-12T01:54:10;20.30;99.90
4548;DHT22;2286;51.570;7.090;2023-08-12T01:56:38;20.30;99.90
4548;DHT22;2286;51.570;7.090;2023-08-12T01:59:04;20.30;99.90
4548;DHT22;2286;51.570;7.090;2023-08-12T02:01:31;20.30;99.90
4548;DHT22;2286;51.570;7.090;2023-08-12T02:03:58;20.30;99.90
4548;DHT22;2286;51.570;7.090;2023-08-12T02:06:25;20.30;99.90
4548;DHT22;2286;51.570;7.090;2023-08-12T02:08:52;20.30;99.90
4548;DHT22;2286;51.570;7.090;2023-08-12T02:11:19;20.30;99.90
4548;DHT22;2286;51.570;7.090;2023-08-12T02:13:47;20.30;99.90
4548;DHT22;2286;51.570;7.090;2023-08-12T02:16:13;20.30;99.90
4548;DHT22;2286;51.570;7.090;2023-08-12T02:18:40;20.30;99.90
4548;DHT22;2286;51.570;7.090;2023-08-12T02:21:07;20.30;99.90
4548;DHT22;2286;51.570;7.090;2023-08-12T02:23:34;20.30;99.90
4548;DHT22;2286;51.570;7.090;2023-08-12T02:26:01;20.30;99.90
4548;DHT22;2286;51.570;7.090;2023-08-12T02:28:28;20.30;99.90
4548;DHT22;2286;51.570;7.090;2023-08-12T02:30:56;20.30;99.90
4548;DHT22;2286;51.570;7.090;2023-08-12T02:33:23;20.30;99.90
4548;DHT22;2286;51.570;7.090;2023-08-12T02:35:53;20.30;99.90
4548;DHT22;2286;51.570;7.090;2023-08-12T02:38:20;20.20;99.90
4548;DHT22;2286;51.570;7.090;2023-08-12T02:40:48;20.30;99.90
4548;DHT22;2286;51.570;7.090;2023-08-12T02:43:15;20.30;99.90
4548;DHT22;2286;51.570;7.090;2023-08-12T02:45:42;20.30;99.90
4548;DHT22;2286;51.570;7.090;2023-08-12T02:48:10;20.30;99.90
4548;DHT22;2286;51.570;7.090;2023-08-12T02:50:38;20.20;99.90
4548;DHT22;2286;51.570;7.090;2023-08-12T02:53:05;20.20;99.90
4548;DHT22;2286;51.570;7.090;2023-08-12T02:55:32;20.20;99.90
4548;DHT22;2286;51.570;7.090;2023-08-12T02:57:59;20.20;99.90
4548;DHT22;2286;51.570;7.090;2023-08-12T03:00:26;20.20;99.90
4548;DHT22;2286;51.570;7.090;2023-08-12T03:02:53;20.20;99.90
4548;DHT22;2286;51.570;7.090;2023-08-12T03:05:22;20.20;99.90
4548;DHT22;2286;51.570;7.090;2023-08-12T03:07:49;20.20;99.90
4548;DHT22;2286;51.570;7.090;2023-08-12T03:10:17;20.20;99.90
4548;DHT22;2286;51.570;7.090;2023-08-12T03:12:44;20.20;99.90
4548;DHT22;2286;51.570;7.090;2023-08-12T03:15:11;20.20;99.90
4548;DHT22;2286;51.570;7.090;2023-08-12T03:17:37;20.30;99.90
4548;DHT22;2286;51.570;7.090;2023-08-12T03:20:06;20.20;99.90
4548;DHT22;2286;51.570;7.090;2023-08-12T03:22:35;20.20;99.90
4548;DHT22;2286;51.570;7.090;2023-08-12T03:25:03;20.20;99.90
4548;DHT22;2286;51.570;7.090;2023-08-12T03:27:30;20.20;99.90
4548;DHT22;2286;51.570;7.090;2023-08-12T03:29:57;20.20;99.90
4548;DHT22;2286;51.570;7.090;2023-08-12T03:32:24;20.20;99.90
4548;DHT22;2286;51.570;7.090;2023-08-12T03:34:51;20.20;99.90
4548;DHT22;2286;51.570;7.090;2023-08-12T03:37:19;20.20;99.90
4548;DHT22;2286;51.570;7.090;2023-08-12T03:39:47;20.20;99.90
4548;DHT22;2286;51.570;7.090;2023-08-12T03:42:14;20.20;99.90
4548;DHT22;2286;51.570;7.090;2023-08-12T03:44:42;20.20;99.90
4548;DHT22;2286;51.570;7.090;2023-08-12T03:47:09;20.20;99.90
4548;DHT22;2286;51.570;7.090;2023-08-12T03:49:37;20.20;99.90
4548;DHT22;2286;51.570;7.090;2023-08-12T03:52:04;20.20;99.90
4548;DHT22;2286;51.570;7.090;2023-08-12T03:54:32;20.20;99.90
4548;DHT22;2286;51.570;7.090;2023-08-12T03:57:01;20.30;99.90
4548;DHT22;2286;51.570;7.090;2023-08-12T03:59:27;20.20;99.90
4548;DHT22;2286;51.570;7.090;2023-08-12T04:01:54;20.30;99.90
4548;DHT22;2286;51.570;7.090;2023-08-12T04:04:21;20.30;99.90
4548;DHT22;2286;51.570;7.090;2023-08-12T04:06:48;20.30;99.90
4548;DHT22;2286;51.570;7.090;2023-08-12T04:09:16;20.30;99.90
4548;DHT22;2286;51.570;7.090;2023-08-12T04:11:43;20.30;99.90
4548;DHT22;2286;51.570;7.090;2023-08-12T04:14:12;20.30;99.90
4548;DHT22;2286;51.570;7.090;2023-08-12T04:16:39;20.30;99.90
4548;DHT22;2286;51.570;7.090;2023-08-12T04:19:06;20.30;99.90
4548;DHT22;2286;51.570;7.090;2023-08-12T04:21:33;20.30;99.90
4548;DHT22;2286;51.570;7.090;2023-08-12T04:24:00;20.30;99.90
4548;DHT22;2286;51.570;7.090;2023-08-12T04:26:27;20.30;99.90
4548;DHT22;2286;51.570;7.090;2023-08-12T04:28:53;20.30;99.90
4548;DHT22;2286;51.570;7.090;2023-08-12T04:31:21;20.30;99.90
4548;DHT22;2286;51.570;7.090;2023-08-12T04:33:48;20.30;99.90
4548;DHT22;2286;51.570;7.090;2023-08-12T04:36:18;20.40;99.90
4548;DHT22;2286;51.570;7.090;2023-08-12T04:38:45;20.40;99.90
4548;DHT22;2286;51.570;7.090;2023-08-12T04:41:11;20.40;99.90
4548;DHT22;2286;51.570;7.090;2023-08-12T04:43:38;20.40;99.90
4548;DHT22;2286;51.570;7.090;2023-08-12T04:46:05;20.40;99.90
4548;DHT22;2286;51.570;7.090;2023-08-12T04:48:33;20.50;99.90
4548;DHT22;2286;51.570;7.090;2023-08-12T04:51:00;20.40;99.90
4548;DHT22;2286;51.570;7.090;2023-08-12T04:53:28;20.40;99.90
4548;DHT22;2286;51.570;7.090;2023-08-12T04:55:55;20.40;99.90
4548;DHT22;2286;51.570;7.090;2023-08-12T04:58:22;20.50;99.90
4548;DHT22;2286;51.570;7.090;2023-08-12T05:00:49;20.50;99.90
4548;DHT22;2286;51.570;7.090;2023-08-12T05:03:17;20.50;99.90
4548;DHT22;2286;51.570;7.090;2023-08-12T05:05:49;20.50;99.90
4548;DHT22;2286;51.570;7.090;2023-08-12T05:08:16;20.60;99.90
4548;DHT22;2286;51.570;7.090;2023-08-12T05:10:43;20.70;99.90
4548;DHT22;2286;51.570;7.090;2023-08-12T05:13:10;20.80;99.90
4548;DHT22;2286;51.570;7.090;2023-08-12T05:15:37;20.80;99.90
4548;DHT22;2286;51.570;7.090;2023-08-12T05:18:04;20.80;99.90
4548;DHT22;2286;51.570;7.090;2023-08-12T05:20:31;20.90;99.90
4548;DHT22;2286;51.570;7.090;2023-08-12T05:22:59;21.00;99.90
4548;DHT22;2286;51.570;7.090;2023-08-12T05:25:26;21.20;99.90
4548;DHT22;2286;51.570;7.090;2023-08-12T05:27:53;21.40;99.90
4548;DHT22;2286;51.570;7.090;2023-08-12T05:30:20;21.50;99.90
4548;DHT22;2286;51.570;7.090;2023-08-12T05:32:46;21.60;99.90
4548;DHT22;2286;51.570;7.090;2023-08-12T05:35:13;21.60;99.90
4548;DHT22;2286;51.570;7.090;2023-08-12T05:37:40;21.60;99.90
4548;DHT22;2286;51.570;7.090;2023-08-12T05:40:10;21.40;99.90
4548;DHT22;2286;51.570;7.090;2023-08-12T05:42:37;21.40;99.90
4548;DHT22;2286;51.570;7.090;2023-08-12T05:45:04;21.40;99.90
4548;DHT22;2286;51.570;7.090;2023-08-12T05:47:31;21.40;99.90
4548;DHT22;2286;51.570;7.090;2023-08-12T05:49:59;21.40;99.90
4548;DHT22;2286;51.570;7.090;2023-08-12T05:52:26;21.30;99.90
4548;DHT22;2286;51.570;7.090;2023-08-12T05:54:52;21.30;99.90
4548;DHT22;2286;51.570;7.090;2023-08-12T05:57:20;21.30;99.90
4548;DHT22;2286;51.570;7.090;2023-08-12T05:59:47;21.30;99.90
4548;DHT22;2286;51.570;7.090;2023-08-12T06:02:14;21.20;99.90
4548;DHT22;2286;51.570;7.090;2023-08-12T06:04:41;21.20;99.90
4548;DHT22;2286;51.570;7.090;2023-08-12T06:07:08;21.20;99.90
4548;DHT22;2286;51.570;7.090;2023-08-12T06:09:35;21.30;99.90
4548;DHT22;2286;51.570;7.090;2023-08-12T06:12:01;21.40;99.90
4548;DHT22;2286;51.570;7.090;2023-08-12T06:14:30;21.40;99.90
4548;DHT22;2286;51.570;7.090;2023-08-12T06:16:56;21.50;99.90
4548;DHT22;2286;51.570;7.090;2023-08-12T06:19:23;21.60;99.90
4548;DHT22;2286;51.570;7.090;2023-08-12T06:21:50;21.70;99.90
4548;DHT22;2286;51.570;7.090;2023-08-12T06:24:17;21.70;99.90
4548;DHT22;2286;51.570;7.090;2023-08-12T06:26:44;21.70;99.90
4548;DHT22;2286;51.570;7.090;2023-08-12T06:29:11;21.70;99.90
4548;DHT22;2286;51.570;7.090;2023-08-12T06:31:39;21.70;99.90
4548;DHT22;2286;51.570;7.090;2023-08-12T06:34:06;21.70;99.90
4548;DHT22;2286;51.570;7.090;2023-08-12T06:36:33;21.60;99.90
4548;DHT22;2286;51.570;7.090;2023-08-12T06:38:59;21.50;99.90
4548;DHT22;2286;51.570;7.090;2023-08-12T06:41:26;21.40;99.90
4548;DHT22;2286;51.570;7.090;2023-08-12T06:43:53;21.30;99.90
4548;DHT22;2286;51.570;7.090;2023-08-12T06:46:20;21.20;99.90
4548;DHT22;2286;51.570;7.090;2023-08-12T06:48:48;21.20;99.90
4548;DHT22;2286;51.570;7.090;2023-08-12T06:51:15;21.20;99.90
4548;DHT22;2286;51.570;7.090;2023-08-12T06:53:42;21.10;99.90
4548;DHT22;2286;51.570;7.090;2023-08-12T06:56:09;21.00;99.90
4548;DHT22;2286;51.570;7.090;2023-08-12T06:58:35;21.10;99.90
4548;DHT22;2286;51.570;7.090;2023-08-12T07:01:02;21.10;99.90
4548;DHT22;2286;51.570;7.090;2023-08-12T07:03:29;21.10;99.90
4548;DHT22;2286;51.570;7.090;2023-08-12T07:05:57;21.10;99.90
4548;DHT22;2286;51.570;7.090;2023-08-12T07:08:24;21.10;99.90
4548;DHT22;2286;51.570;7.090;2023-08-12T07:10:53;21.10;99.90
4548;DHT22;2286;51.570;7.090;2023-08-12T07:13:19;21.10;99.90
4548;DHT22;2286;51.570;7.090;2023-08-12T07:15:46;21.10;99.90
4548;DHT22;2286;51.570;7.090;2023-08-12T07:18:13;21.00;99.90
4548;DHT22;2286;51.570;7.090;2023-08-12T07:20:41;21.10;99.90
4548;DHT22;2286;51.570;7.090;2023-08-12T07:23:09;21.10;99.90
4548;DHT22;2286;51.570;7.090;2023-08-12T07:25:35;21.20;99.90
4548;DHT22;2286;51.570;7.090;2023-08-12T07:28:03;21.30;99.90
4548;DHT22;2286;51.570;7.090;2023-08-12T07:30:29;21.30;99.90
4548;DHT22;2286;51.570;7.090;2023-08-12T07:32:57;21.30;99.90
4548;DHT22;2286;51.570;7.090;2023-08-12T07:35:23;21.40;99.90
4548;DHT22;2286;51.570;7.090;2023-08-12T07:37:50;21.50;99.90
4548;DHT22;2286;51.570;7.090;2023-08-12T07:40:18;21.60;99.90
4548;DHT22;2286;51.570;7.090;2023-08-12T07:42:46;21.60;99.90
4548;DHT22;2286;51.570;7.090;2023-08-12T07:45:13;21.60;99.90
4548;DHT22;2286;51.570;7.090;2023-08-12T07:47:39;21.50;99.90
4548;DHT22;2286;51.570;7.090;2023-08-12T07:50:07;21.40;99.90
4548;DHT22;2286;51.570;7.090;2023-08-12T07:52:34;21.50;99.90
4548;DHT22;2286;51.570;7.090;2023-08-12T07:55:01;21.50;99.90
4548;DHT22;2286;51.570;7.090;2023-08-12T07:57:29;21.60;99.90
4548;DHT22;2286;51.570;7.090;2023-08-12T07:59:55;21.60;99.90
4548;DHT22;2286;51.570;7.090;2023-08-12T08:02:22;21.70;99.90
4548;DHT22;2286;51.570;7.090;2023-08-12T08:04:49;21.80;99.90
4548;DHT22;2286;51.570;7.090;2023-08-12T08:07:16;21.80;99.90
4548;DHT22;2286;51.570;7.090;2023-08-12T08:09:43;21.90;99.90
4548;DHT22;2286;51.570;7.090;2023-08-12T08:12:11;22.00;99.90
4548;DHT22;2286;51.570;7.090;2023-08-12T08:14:39;22.20;99.90
4548;DHT22;2286;51.570;7.090;2023-08-12T08:17:06;22.10;1.00
4548;DHT22;2286;51.570;7.090;2023-08-12T08:19:33;22.00;28.60
4548;DHT22;2286;51.570;7.090;2023-08-12T08:22:00;21.90;99.90
4548;DHT22;2286;51.570;7.090;2023-08-12T08:24:26;21.80;99.90
4548;DHT22;2286;51.570;7.090;2023-08-12T08:26:53;21.70;99.90
4548;DHT22;2286;51.570;7.090;2023-08-12T08:29:21;21.70;99.90
4548;DHT22;2286;51.570;7.090;2023-08-12T08:31:49;21.50;99.90
4548;DHT22;2286;51.570;7.090;2023-08-12T08:34:19;21.60;99.90
4548;DHT22;2286;51.570;7.090;2023-08-12T08:36:46;21.60;99.90
4548;DHT22;2286;51.570;7.090;2023-08-12T08:39:13;21.70;99.90
4548;DHT22;2286;51.570;7.090;2023-08-12T08:41:40;21.70;99.90
4548;DHT22;2286;51.570;7.090;2023-08-12T08:44:08;21.70;99.90
4548;DHT22;2286;51.570;7.090;2023-08-12T08:46:35;21.70;99.90
4548;DHT22;2286;51.570;7.090;2023-08-12T08:49:04;21.70;99.90
4548;DHT22;2286;51.570;7.090;2023-08-12T08:51:32;21.90;99.90
4548;DHT22;2286;51.570;7.090;2023-08-12T08:53:59;21.90;99.90
4548;DHT22;2286;51.570;7.090;2023-08-12T08:56:28;21.90;99.90
4548;DHT22;2286;51.570;7.090;2023-08-12T08:58:55;21.80;99.90
4548;DHT22;2286;51.570;7.090;2023-08-12T09:01:23;21.80;99.90
4548;DHT22;2286;51.570;7.090;2023-08-12T09:03:51;21.80;99.90
4548;DHT22;2286;51.570;7.090;2023-08-12T09:06:21;21.90;99.90
4548;DHT22;2286;51.570;7.090;2023-08-12T09:08:49;21.80;99.90
4548;DHT22;2286;51.570;7.090;2023-08-12T09:11:18;21.80;99.90
4548;DHT22;2286;51.570;7.090;2023-08-12T09:13:45;21.90;99.90
4548;DHT22;2286;51.570;7.090;2023-08-12T09:16:12;21.90;99.90
4548;DHT22;2286;51.570;7.090;2023-08-12T09:18:41;22.00;99.90
4548;DHT22;2286;51.570;7.090;2023-08-12T09:21:09;21.90;99.90
4548;DHT22;2286;51.570;7.090;2023-08-12T09:23:37;21.80;99.90
4548;DHT22;2286;51.570;7.090;2023-08-12T09:26:12;21.60;99.90
4548;DHT22;2286;51.570;7.090;2023-08-12T09:28:40;21.60;99.90
4548;DHT22;2286;51.570;7.090;2023-08-12T09:31:07;21.60;99.90
4548;DHT22;2286;51.570;7.090;2023-08-12T09:33:38;21.60;99.90
4548;DHT22;2286;51.570;7.090;2023-08-12T09:36:05;21.60;99.90
4548;DHT22;2286;51.570;7.090;2023-08-12T09:38:32;21.60;99.90
4548;DHT22;2286;51.570;7.090;2023-08-12T09:41:00;21.50;99.90
4548;DHT22;2286;51.570;7.090;2023-08-12T09:43:28;21.40;99.90
4548;DHT22;2286;51.570;7.090;2023-08-12T09:45:56;21.40;99.90
4548;DHT22;2286;51.570;7.090;2023-08-12T09:48:24;21.40;99.90
4548;DHT22;2286;51.570;7.090;2023-08-12T09:50:52;21.50;99.90
4548;DHT22;2286;51.570;7.090;2023-08-12T09:53:19;21.60;99.90
4548;DHT22;2286;51.570;7.090;2023-08-12T09:55:47;21.50;99.90
4548;DHT22;2286;51.570;7.090;2023-08-12T09:58:18;21.60;99.90
4548;DHT22;2286;51.570;7.090;2023-08-12T10:00:46;21.60;99.90
4548;DHT22;2286;51.570;7.090;2023-08-12T10:03:18;21.60;99.90
4548;DHT22;2286;51.570;7.090;2023-08-12T10:05:46;21.50;99.90
4548;DHT22;2286;51.570;7.090;2023-08-12T10:08:14;21.30;99.90
4548;DHT22;2286;51.570;7.090;2023-08-12T10:10:42;21.20;99.90
4548;DHT22;2286;51.570;7.090;2023-08-12T10:13:10;21.00;99.90
4548;DHT22;2286;51.570;7.090;2023-08-12T10:15:38;21.00;99.90
4548;DHT22;2286;51.570;7.090;2023-08-12T10:18:06;20.90;99.90
4548;DHT22;2286;51.570;7.090;2023-08-12T10:20:35;21.00;99.90
4548;DHT22;2286;51.570;7.090;2023-08-12T10:23:04;21.00;99.90
4548;DHT22;2286;51.570;7.090;2023-08-12T10:25:33;21.00;99.90
4548;DHT22;2286;51.570;7.090;2023-08-12T10:28:00;20.90;99.90
4548;DHT22;2286;51.570;7.090;2023-08-12T10:30:29;21.00;99.90
4548;DHT22;2286;51.570;7.090;2023-08-12T10:32:58;21.00;99.90
4548;DHT22;2286;51.570;7.090;2023-08-12T10:35:43;21.00;99.90
4548;DHT22;2286;51.570;7.090;2023-08-12T10:38:13;21.10;99.90
4548;DHT22;2286;51.570;7.090;2023-08-12T10:40:41;21.20;99.90
4548;DHT22;2286;51.570;7.090;2023-08-12T10:43:08;21.50;99.90
4548;DHT22;2286;51.570;7.090;2023-08-12T10:45:42;21.90;99.90
4548;DHT22;2286;51.570;7.090;2023-08-12T10:48:16;21.90;99.90
4548;DHT22;2286;51.570;7.090;2023-08-12T10:50:45;21.90;99.90
4548;DHT22;2286;51.570;7.090;2023-08-12T10:53:23;21.90;99.90
4548;DHT22;2286;51.570;7.090;2023-08-12T10:55:55;21.80;99.90
4548;DHT22;2286;51.570;7.090;2023-08-12T10:58:34;21.80;99.90
4548;DHT22;2286;51.570;7.090;2023-08-12T11:01:01;21.80;99.90
4548;DHT22;2286;51.570;7.090;2023-08-12T11:03:33;21.80;99.90
4548;DHT22;2286;51.570;7.090;2023-08-12T11:06:02;21.90;99.90
4548;DHT22;2286;51.570;7.090;2023-08-12T11:08:29;21.90;99.90
4548;DHT22;2286;51.570;7.090;2023-08-12T11:10:56;22.00;99.90
4548;DHT22;2286;51.570;7.090;2023-08-12T11:13:27;22.10;99.90
4548;DHT22;2286;51.570;7.090;2023-08-12T11:16:05;22.00;99.90
4548;DHT22;2286;51.570;7.090;2023-08-12T11:18:34;22.00;99.90
4548;DHT22;2286;51.570;7.090;2023-08-12T11:21:01;22.00;99.90
4548;DHT22;2286;51.570;7.090;2023-08-12T11:23:30;22.00;99.90
4548;DHT22;2286;51.570;7.090;2023-08-12T11:25:56;22.20;99.90
4548;DHT22;2286;51.570;7.090;2023-08-12T11:28:24;22.10;99.90
4548;DHT22;2286;51.570;7.090;2023-08-12T11:30:51;22.00;99.90
4548;DHT22;2286;51.570;7.090;2023-08-12T11:33:18;22.20;99.90
4548;DHT22;2286;51.570;7.090;2023-08-12T11:35:47;22.40;63.50
4548;DHT22;2286;51.570;7.090;2023-08-12T11:38:15;22.70;1.00
4548;DHT22;2286;51.570;7.090;2023-08-12T11:40:42;22.90;1.00
4548;DHT22;2286;51.570;7.090;2023-08-12T11:43:09;23.20;1.00
4548;DHT22;2286;51.570;7.090;2023-08-12T11:45:36;23.70;1.00
4548;DHT22;2286;51.570;7.090;2023-08-12T11:48:04;24.00;99.90
4548;DHT22;2286;51.570;7.090;2023-08-12T11:50:31;24.10;99.90
4548;DHT22;2286;51.570;7.090;2023-08-12T11:52:59;24.10;1.00
4548;DHT22;2286;51.570;7.090;2023-08-12T11:55:27;23.90;1.00
4548;DHT22;2286;51.570;7.090;2023-08-12T11:57:53;23.50;1.00
4548;DHT22;2286;51.570;7.090;2023-08-12T12:00:20;23.30;1.00
4548;DHT22;2286;51.570;7.090;2023-08-12T12:02:50;23.00;99.90
4548;DHT22;2286;51.570;7.090;2023-08-12T12:05:18;22.80;1.00
4548;DHT22;2286;51.570;7.090;2023-08-12T12:07:45;22.60;99.90
4548;DHT22;2286;51.570;7.090;2023-08-12T12:10:18;22.40;1.00
4548;DHT22;2286;51.570;7.090;2023-08-12T12:12:45;22.20;99.90
4548;DHT22;2286;51.570;7.090;2023-08-12T12:15:13;22.00;99.90
4548;DHT22;2286;51.570;7.090;2023-08-12T12:17:41;21.90;99.90
4548;DHT22;2286;51.570;7.090;2023-08-12T12:20:08;21.60;99.90
4548;DHT22;2286;51.570;7.090;2023-08-12T12:22:37;21.50;99.90
4548;DHT22;2286;51.570;7.090;2023-08-12T12:25:08;21.30;99.90
4548;DHT22;2286;51.570;7.090;2023-08-12T12:27:38;21.20;99.90
4548;DHT22;2286;51.570;7.090;2023-08-12T12:30:07;21.10;99.90
4548;DHT22;2286;51.570;7.090;2023-08-12T12:32:35;21.30;99.90
4548;DHT22;2286;51.570;7.090;2023-08-12T12:35:01;22.10;99.90
4548;DHT22;2286;51.570;7.090;2023-08-12T12:37:29;23.10;99.90
4548;DHT22;2286;51.570;7.090;2023-08-12T12:39:56;23.00;1.00
4548;DHT22;2286;51.570;7.090;2023-08-12T12:42:22;22.70;99.90
4548;DHT22;2286;51.570;7.090;2023-08-12T12:44:51;22.50;1.00
4548;DHT22;2286;51.570;7.090;2023-08-12T12:47:18;22.20;99.90
4548;DHT22;2286;51.570;7.090;2023-08-12T12:49:45;21.80;99.90
4548;DHT22;2286;51.570;7.090;2023-08-12T12:52:12;21.60;99.90
4548;DHT22;2286;51.570;7.090;2023-08-12T12:54:39;21.40;99.90
4548;DHT22;2286;51.570;7.090;2023-08-12T12:57:06;21.30;99.90
4548;DHT22;2286;51.570;7.090;2023-08-12T12:59:33;21.20;99.90
4548;DHT22;2286;51.570;7.090;2023-08-12T13:02:01;21.00;99.90
4548;DHT22;2286;51.570;7.090;2023-08-12T13:04:28;21.00;99.90
4548;DHT22;2286;51.570;7.090;2023-08-12T13:06:55;20.90;99.90
4548;DHT22;2286;51.570;7.090;2023-08-12T13:09:22;20.80;99.90
4548;DHT22;2286;51.570;7.090;2023-08-12T13:11:48;20.80;99.90
4548;DHT22;2286;51.570;7.090;2023-08-12T13:14:15;20.80;99.90
4548;DHT22;2286;51.570;7.090;2023-08-12T13:16:46;20.90;99.90
4548;DHT22;2286;51.570;7.090;2023-08-12T13:19:14;21.00;99.90
4548;DHT22;2286;51.570;7.090;2023-08-12T13:21:41;20.80;99.90
4548;DHT22;2286;51.570;7.090;2023-08-12T13:24:08;20.70;99.90
4548;DHT22;2286;51.570;7.090;2023-08-12T13:26:35;20.60;99.90
4548;DHT22;2286;51.570;7.090;2023-08-12T13:29:02;20.70;99.90
4548;DHT22;2286;51.570;7.090;2023-08-12T13:31:29;20.70;99.90
4548;DHT22;2286;51.570;7.090;2023-08-12T13:33:56;20.80;99.90
4548;DHT22;2286;51.570;7.090;2023-08-12T13:36:24;20.80;99.90
4548;DHT22;2286;51.570;7.090;2023-08-12T13:38:51;20.70;99.90
4548;DHT22;2286;51.570;7.090;2023-08-12T13:41:18;20.70;99.90
4548;DHT22;2286;51.570;7.090;2023-08-12T13:43:44;21.00;99.90
4548;DHT22;2286;51.570;7.090;2023-08-12T13:46:11;21.70;99.90
4548;DHT22;2286;51.570;7.090;2023-08-12T13:48:38;21.90;99.90
4548;DHT22;2286;51.570;7.090;2023-08-12T13:51:05;21.60;99.90
4548;DHT22;2286;51.570;7.090;2023-08-12T13:53:33;21.40;99.90
4548;DHT22;2286;51.570;7.090;2023-08-12T13:56:00;21.30;99.90
4548;DHT22;2286;51.570;7.090;2023-08-12T13:58:26;21.20;99.90
4548;DHT22;2286;51.570;7.090;2023-08-12T14:00:53;21.00;99.90
4548;DHT22;2286;51.570;7.090;2023-08-12T14:03:20;20.90;99.90
4548;DHT22;2286;51.570;7.090;2023-08-12T14:05:47;20.90;99.90
4548;DHT22;2286;51.570;7.090;2023-08-12T14:08:14;20.80;99.90
4548;DHT22;2286;51.570;7.090;2023-08-12T14:10:42;20.70;99.90
4548;DHT22;2286;51.570;7.090;2023-08-12T14:13:09;20.80;99.90
4548;DHT22;2286;51.570;7.090;2023-08-12T14:15:35;21.20;99.90
4548;DHT22;2286;51.570;7.090;2023-08-12T14:18:02;21.60;99.90
4548;DHT22;2286;51.570;7.090;2023-08-12T14:20:30;21.80;99.90
4548;DHT22;2286;51.570;7.090;2023-08-12T14:22:57;22.40;99.90
4548;DHT22;2286;51.570;7.090;2023-08-12T14:25:25;22.90;99.90
4548;DHT22;2286;51.570;7.090;2023-08-12T14:27:53;23.80;99.90
4548;DHT22;2286;51.570;7.090;2023-08-12T14:30:23;24.20;99.90
4548;DHT22;2286;51.570;7.090;2023-08-12T14:32:51;24.60;1.00
4548;DHT22;2286;51.570;7.090;2023-08-12T14:35:17;24.80;82.90
4548;DHT22;2286;51.570;7.090;2023-08-12T14:37:44;24.60;99.90
4548;DHT22;2286;51.570;7.090;2023-08-12T14:40:11;24.60;99.90
4548;DHT22;2286;51.570;7.090;2023-08-12T14:42:38;24.60;99.90
4548;DHT22;2286;51.570;7.090;2023-08-12T14:45:07;25.30;46.80
4548;DHT22;2286;51.570;7.090;2023-08-12T14:47:34;26.80;1.00
4548;DHT22;2286;51.570;7.090;2023-08-12T14:50:01;27.70;1.00
4548;DHT22;2286;51.570;7.090;2023-08-12T14:52:29;29.20;1.00
4548;DHT22;2286;51.570;7.090;2023-08-12T14:54:56;29.20;99.90
4548;DHT22;2286;51.570;7.090;2023-08-12T14:57:23;29.00;1.00
4548;DHT22;2286;51.570;7.090;2023-08-12T14:59:50;29.60;99.90
4548;DHT22;2286;51.570;7.090;2023-08-12T15:02:20;29.20;99.90
4548;DHT22;2286;51.570;7.090;2023-08-12T15:04:47;29.20;99.90
4548;DHT22;2286;51.570;7.090;2023-08-12T15:07:14;28.10;1.00
4548;DHT22;2286;51.570;7.090;2023-08-12T15:09:41;29.30;99.90
4548;DHT22;2286;51.570;7.090;2023-08-12T15:12:08;31.10;99.90
4548;DHT22;2286;51.570;7.090;2023-08-12T15:14:35;32.60;99.90
4548;DHT22;2286;51.570;7.090;2023-08-12T15:17:02;32.40;99.90
4548;DHT22;2286;51.570;7.090;2023-08-12T15:19:30;32.50;99.90
4548;DHT22;2286;51.570;7.090;2023-08-12T15:21:58;33.40;99.90
4548;DHT22;2286;51.570;7.090;2023-08-12T15:24:25;31.70;99.90
4548;DHT22;2286;51.570;7.090;2023-08-12T15:26:52;29.60;99.90
4548;DHT22;2286;51.570;7.090;2023-08-12T15:29:19;29.40;99.90
4548;DHT22;2286;51.570;7.090;2023-08-12T15:31:46;31.30;99.90
4548;DHT22;2286;51.570;7.090;2023-08-12T15:34:13;32.10;99.90
4548;DHT22;2286;51.570;7.090;2023-08-12T15:36:41;32.50;99.90
4548;DHT22;2286;51.570;7.090;2023-08-12T15:39:08;33.20;99.90
4548;DHT22;2286;51.570;7.090;2023-08-12T15:41:40;34.20;99.90
4548;DHT22;2286;51.570;7.090;2023-08-12T15:44:08;33.80;99.90
4548;DHT22;2286;51.570;7.090;2023-08-12T15:46:35;33.40;99.90
4548;DHT22;2286;51.570;7.090;2023-08-12T15:49:02;33.70;99.90
4548;DHT22;2286;51.570;7.090;2023-08-12T15:51:30;34.80;99.90
4548;DHT22;2286;51.570;7.090;2023-08-12T15:53:58;33.80;99.90
4548;DHT22;2286;51.570;7.090;2023-08-12T15:56:25;33.70;99.90
4548;DHT22;2286;51.570;7.090;2023-08-12T15:58:52;34.00;99.90
4548;DHT22;2286;51.570;7.090;2023-08-12T16:01:19;34.50;99.90
4548;DHT22;2286;51.570;7.090;2023-08-12T16:03:46;34.60;99.90